createdAt,value
2019-03-25T00:01:13.408Z,14.53
2019-03-25T00:03:42.294Z,15.50
2019-03-25T00:06:10.979Z,10.80
2019-03-25T00:08:39.650Z,16.20
2019-03-25T00:11:08.353Z,21.00
2019-03-25T00:13:37.041Z,18.77
2019-03-25T00:16:05.821Z,17.43
2019-03-25T00:18:34.710Z,13.67
2019-03-25T00:21:03.495Z,13.43
2019-03-25T00:23:32.076Z,12.60
2019-03-25T00:26:00.860Z,18.17
2019-03-25T00:28:29.648Z,14.07
2019-03-25T00:30:58.321Z,13.93
2019-03-25T00:33:27.018Z,20.63
2019-03-25T00:35:55.704Z,15.70
2019-03-25T00:38:24.385Z,17.47
2019-03-25T00:40:53.375Z,17.03
2019-03-25T00:43:22.060Z,17.20
2019-03-25T00:45:50.746Z,15.23
2019-03-25T00:48:19.429Z,13.03
2019-03-25T00:50:47.909Z,18.10
2019-03-25T00:53:16.491Z,15.53
2019-03-25T00:55:45.176Z,22.83
2019-03-25T00:58:13.962Z,14.53
2019-03-25T01:00:42.955Z,18.17
2019-03-25T01:03:11.537Z,17.47
2019-03-25T01:05:40.224Z,16.70
2019-03-25T01:08:09.013Z,16.97
2019-03-25T01:10:37.802Z,16.47
2019-03-25T01:13:06.691Z,17.20
2019-03-25T01:15:38.144Z,20.97
2019-03-25T01:18:16.450Z,18.83
2019-03-25T01:20:37.038Z,17.00
2019-03-25T01:23:05.621Z,18.27
2019-03-25T01:25:34.410Z,19.63
2019-03-25T01:28:02.994Z,24.37
2019-03-25T01:30:31.777Z,19.33
2019-03-25T01:33:00.461Z,18.97
2019-03-25T01:35:29.249Z,20.97
2019-03-25T01:37:57.933Z,17.73
2019-03-25T01:40:26.726Z,15.30
2019-03-25T01:42:55.403Z,19.53
2019-03-25T01:45:23.882Z,22.37
2019-03-25T01:47:52.466Z,20.23
2019-03-25T01:50:21.053Z,15.27
2019-03-25T01:52:49.941Z,19.87
2019-03-25T01:55:18.633Z,18.93
2019-03-25T01:57:47.313Z,20.33
2019-03-25T02:00:16.000Z,21.43
2019-03-25T02:02:47.657Z,24.10
2019-03-25T02:05:16.344Z,19.10
2019-03-25T02:07:44.911Z,20.70
2019-03-25T02:10:13.595Z,20.70
2019-03-25T02:12:42.291Z,20.40
2019-03-25T02:15:11.071Z,18.43
2019-03-25T02:17:39.657Z,17.10
2019-03-25T02:20:08.440Z,22.63
2019-03-25T02:22:37.264Z,16.77
2019-03-25T02:25:06.444Z,22.10
2019-03-25T02:27:35.105Z,21.83
2019-03-25T02:30:06.214Z,16.77
2019-03-25T02:32:35.048Z,21.57
2019-03-25T02:35:04.065Z,21.20
2019-03-25T02:37:32.938Z,22.57
2019-03-25T02:40:01.700Z,25.77
2019-03-25T02:42:30.310Z,17.47
2019-03-25T02:44:58.992Z,24.53
2019-03-25T02:47:27.665Z,22.23
2019-03-25T02:49:56.231Z,23.43
2019-03-25T02:52:24.818Z,25.80
2019-03-25T02:54:53.402Z,18.50
2019-03-25T02:57:21.985Z,23.33
2019-03-25T02:59:50.449Z,22.47
2019-03-25T03:02:19.031Z,19.00
2019-03-25T03:04:47.834Z,23.40
2019-03-25T03:07:16.628Z,28.10
2019-03-25T03:09:45.415Z,21.63
2019-03-25T03:12:14.107Z,19.80
2019-03-25T03:14:42.869Z,18.90
2019-03-25T03:17:11.516Z,22.77
2019-03-25T03:19:43.110Z,27.13
2019-03-25T03:22:11.695Z,22.37
2019-03-25T03:24:40.275Z,24.23
2019-03-25T03:27:08.959Z,26.53
2019-03-25T03:29:37.544Z,24.33
2019-03-25T03:32:06.128Z,23.93
2019-03-25T03:34:34.720Z,21.80
2019-03-25T03:37:03.287Z,20.57
2019-03-25T03:39:31.870Z,19.40
2019-03-25T03:42:00.456Z,25.13
2019-03-25T03:44:29.139Z,23.33
2019-03-25T03:46:57.722Z,21.07
2019-03-25T03:49:26.509Z,23.53
2019-03-25T03:51:55.053Z,19.67
2019-03-25T03:54:23.679Z,21.63
2019-03-25T03:56:52.311Z,19.63
2019-03-25T03:59:21.047Z,24.37
2019-03-25T04:01:49.816Z,24.93
2019-03-25T04:04:18.517Z,17.33
2019-03-25T04:06:47.298Z,21.87
2019-03-25T04:09:15.983Z,18.20
2019-03-25T04:11:44.786Z,19.47
2019-03-25T04:14:13.559Z,15.97
2019-03-25T04:16:42.346Z,18.80
2019-03-25T04:19:11.041Z,21.40
2019-03-25T04:21:39.818Z,19.43
2019-03-25T04:24:08.622Z,18.57
2019-03-25T04:26:37.496Z,18.27
2019-03-25T04:29:06.280Z,23.33
2019-03-25T04:31:35.183Z,25.30
2019-03-25T04:34:03.983Z,14.87
2019-03-25T04:36:32.688Z,17.50
2019-03-25T04:39:01.442Z,12.67
2019-03-25T04:41:30.111Z,17.07
2019-03-25T04:43:58.615Z,14.93
2019-03-25T04:46:27.582Z,19.83
2019-03-25T04:48:56.164Z,17.87
2019-03-25T04:51:24.751Z,13.30
2019-03-25T04:53:53.428Z,15.90
2019-03-25T04:56:22.012Z,19.07
2019-03-25T04:58:50.709Z,11.47
2019-03-25T05:01:19.279Z,8.87
2019-03-25T05:03:47.859Z,17.73
2019-03-25T05:06:16.546Z,14.37
2019-03-25T05:08:45.337Z,14.77
2019-03-25T05:11:13.914Z,13.00
2019-03-25T05:13:42.601Z,16.10
2019-03-25T05:16:11.288Z,13.27
2019-03-25T05:18:40.086Z,12.90
2019-03-25T05:21:08.654Z,15.97
2019-03-25T05:23:37.236Z,13.80
2019-03-25T05:26:06.024Z,11.73
2019-03-25T05:28:34.611Z,14.47
2019-03-25T05:31:03.277Z,15.80
2019-03-25T05:33:31.852Z,18.33
2019-03-25T05:36:00.378Z,18.07
2019-03-25T05:38:29.023Z,12.07
2019-03-25T05:40:57.604Z,19.63
2019-03-25T05:43:26.191Z,14.73
2019-03-25T05:45:54.788Z,20.80
2019-03-25T05:48:23.517Z,15.13
2019-03-25T05:50:52.036Z,19.03
2019-03-25T05:53:20.598Z,15.37
2019-03-25T05:55:49.128Z,21.83
2019-03-25T05:58:17.802Z,15.83
2019-03-25T06:00:46.333Z,17.33
2019-03-25T06:03:14.957Z,17.57
2019-03-25T06:05:43.751Z,20.27
2019-03-25T06:08:13.145Z,21.23
2019-03-25T06:10:41.902Z,18.97
2019-03-25T06:13:10.621Z,19.80
2019-03-25T06:15:39.186Z,22.60
2019-03-25T06:18:07.884Z,15.03
2019-03-25T06:20:36.613Z,19.73
2019-03-25T06:23:05.457Z,18.87
2019-03-25T06:25:34.450Z,20.23
2019-03-25T06:28:03.147Z,15.27
2019-03-25T06:30:31.718Z,17.23
2019-03-25T06:33:11.725Z,24.87
2019-03-25T06:35:30.830Z,19.43
2019-03-25T06:37:59.619Z,13.70
2019-03-25T06:40:28.203Z,14.10
2019-03-25T06:42:56.892Z,18.67
2019-03-25T06:45:25.733Z,18.33
2019-03-25T06:47:54.249Z,19.57
2019-03-25T06:50:22.937Z,16.97
2019-03-25T06:52:51.733Z,23.57
2019-03-25T06:55:20.512Z,22.20
2019-03-25T06:57:49.086Z,24.50
2019-03-25T07:00:17.662Z,18.83
2019-03-25T07:02:46.251Z,24.50
2019-03-25T07:05:14.888Z,23.73
2019-03-25T07:07:43.764Z,21.83
2019-03-25T07:10:13.277Z,24.90
2019-03-25T07:12:42.022Z,21.43
2019-03-25T07:15:10.815Z,18.37
2019-03-25T07:17:39.497Z,28.37
2019-03-25T07:20:08.385Z,23.40
2019-03-25T07:22:37.112Z,17.60
2019-03-25T07:25:06.571Z,28.73
2019-03-25T07:27:37.058Z,22.60
2019-03-25T07:30:07.360Z,20.47
2019-03-25T07:32:36.100Z,21.83
2019-03-25T07:35:06.919Z,22.27
2019-03-25T07:37:35.415Z,22.60
2019-03-25T07:40:11.782Z,23.10
2019-03-25T07:42:42.784Z,35.47
2019-03-25T07:45:10.907Z,25.13
2019-03-25T07:47:39.481Z,20.70
2019-03-25T07:50:08.437Z,31.37
2019-03-25T07:52:36.956Z,28.00
2019-03-25T07:55:06.217Z,22.27
2019-03-25T07:57:34.897Z,26.37
2019-03-25T08:00:13.433Z,22.10
2019-03-25T08:02:36.000Z,22.57
2019-03-25T08:05:05.720Z,26.37
2019-03-25T08:07:34.275Z,25.67
2019-03-25T08:10:02.960Z,24.13
2019-03-25T08:12:31.552Z,28.37
2019-03-25T08:15:00.212Z,22.00
2019-03-25T08:17:28.937Z,26.53
2019-03-25T08:19:57.428Z,37.57
2019-03-25T08:22:26.385Z,24.10
2019-03-25T08:24:55.074Z,31.33
2019-03-25T08:27:23.861Z,26.07
2019-03-25T08:29:52.548Z,24.47
2019-03-25T08:32:21.224Z,36.87
2019-03-25T08:34:49.915Z,21.17
2019-03-25T08:37:18.693Z,26.17
2019-03-25T08:39:47.377Z,23.00
2019-03-25T08:42:15.951Z,28.20
2019-03-25T08:44:44.652Z,12.40
2019-03-25T08:47:13.228Z,27.30
2019-03-25T08:49:41.810Z,20.77
2019-03-25T08:52:10.494Z,21.07
2019-03-25T08:54:39.087Z,22.43
2019-03-25T08:57:07.745Z,26.27
2019-03-25T08:59:36.459Z,17.37
2019-03-25T09:02:05.229Z,18.30
2019-03-25T09:04:34.020Z,26.97
2019-03-25T09:07:02.599Z,22.77
2019-03-25T09:09:31.284Z,16.93
2019-03-25T09:11:59.969Z,17.03
2019-03-25T09:14:28.759Z,15.53
2019-03-25T09:17:00.445Z,15.73
2019-03-25T09:19:28.073Z,13.43
2019-03-25T09:21:56.661Z,11.77
2019-03-25T09:24:25.234Z,15.37
2019-03-25T09:26:53.817Z,22.30
2019-03-25T09:29:22.501Z,22.20
2019-03-25T09:31:50.981Z,20.23
2019-03-25T09:34:19.665Z,16.67
2019-03-25T09:36:48.350Z,17.70
2019-03-25T09:39:17.138Z,24.87
2019-03-25T09:41:45.719Z,15.27
2019-03-25T09:44:15.533Z,18.07
2019-03-25T09:46:44.229Z,17.70
2019-03-25T09:49:13.109Z,15.40
2019-03-25T09:51:41.796Z,21.43
2019-03-25T09:54:10.585Z,22.97
2019-03-25T09:56:39.362Z,25.77
2019-03-25T09:59:08.039Z,28.63
2019-03-25T10:01:36.647Z,27.87
2019-03-25T10:04:05.313Z,28.23
2019-03-25T10:06:33.906Z,22.77
2019-03-25T10:09:02.580Z,25.43
2019-03-25T10:11:31.472Z,21.33
2019-03-25T10:14:00.354Z,26.53
2019-03-25T10:16:29.146Z,22.90
2019-03-25T10:18:57.933Z,20.33
2019-03-25T10:21:26.618Z,20.33
2019-03-25T10:23:55.464Z,31.67
2019-03-25T10:26:24.311Z,26.63
2019-03-25T10:28:53.187Z,24.10
2019-03-25T10:31:21.869Z,28.13
2019-03-25T10:33:50.760Z,23.10
2019-03-25T10:36:19.552Z,23.00
2019-03-25T10:38:48.237Z,27.23
2019-03-25T10:41:19.889Z,18.97
2019-03-25T10:43:48.686Z,15.90
2019-03-25T10:46:17.575Z,31.90
2019-03-25T10:48:46.277Z,20.73
2019-03-25T10:51:15.036Z,18.23
2019-03-25T10:53:43.720Z,18.47
2019-03-25T10:56:12.521Z,19.40
2019-03-25T10:58:41.199Z,14.87
2019-03-25T11:01:09.769Z,17.13
2019-03-25T11:03:38.965Z,18.07
2019-03-25T11:06:07.959Z,19.73
2019-03-25T11:08:36.965Z,20.43
2019-03-25T11:11:06.416Z,16.23
2019-03-25T11:13:39.485Z,22.60
2019-03-25T11:16:15.244Z,17.03
2019-03-25T11:18:44.299Z,14.63
2019-03-25T11:21:13.070Z,20.50
2019-03-25T11:23:41.756Z,12.63
2019-03-25T11:26:10.339Z,19.47
2019-03-25T11:28:39.114Z,22.37
2019-03-25T11:31:07.904Z,13.33
2019-03-25T11:33:36.635Z,19.13
2019-03-25T11:36:05.384Z,21.40
2019-03-25T11:38:34.167Z,18.60
2019-03-25T11:41:02.863Z,25.67
2019-03-25T11:43:31.645Z,23.40
2019-03-25T11:46:00.537Z,16.50
2019-03-25T11:48:29.323Z,25.63
2019-03-25T11:50:58.108Z,25.10
2019-03-25T11:53:27.004Z,11.00
2019-03-25T11:55:55.683Z,16.60
2019-03-25T11:58:26.007Z,14.00
2019-03-25T12:00:54.999Z,14.77
2019-03-25T12:03:26.937Z,20.60
2019-03-25T12:05:58.747Z,12.53
2019-03-25T12:08:27.816Z,9.90
2019-03-25T12:10:56.708Z,13.60
2019-03-25T12:13:25.393Z,18.37
2019-03-25T12:15:54.072Z,10.20
2019-03-25T12:18:22.768Z,13.70
2019-03-25T12:20:51.562Z,12.63
2019-03-25T12:23:26.288Z,15.93
2019-03-25T12:25:50.441Z,17.33
2019-03-25T12:28:20.727Z,18.27
2019-03-25T12:30:49.948Z,17.90
2019-03-25T12:33:18.646Z,13.90
2019-03-25T12:35:47.331Z,19.50
2019-03-25T12:38:16.022Z,19.27
2019-03-25T12:40:44.791Z,23.13
2019-03-25T12:43:13.588Z,15.37
2019-03-25T12:45:42.371Z,15.87
2019-03-25T12:48:11.057Z,16.57
2019-03-25T12:50:39.755Z,14.77
2019-03-25T12:53:08.339Z,20.03
2019-03-25T12:55:36.972Z,17.60
2019-03-25T12:58:07.466Z,13.60
2019-03-25T13:00:38.259Z,14.70
2019-03-25T13:03:06.871Z,18.17
2019-03-25T13:05:35.746Z,18.23
2019-03-25T13:08:04.331Z,9.53
2019-03-25T13:10:32.856Z,12.73
2019-03-25T13:13:01.500Z,10.37
2019-03-25T13:15:30.181Z,11.00
2019-03-25T13:17:58.979Z,17.33
2019-03-25T13:20:27.657Z,17.03
2019-03-25T13:22:56.452Z,17.00
2019-03-25T13:25:25.132Z,22.10
2019-03-25T13:27:53.876Z,16.37
2019-03-25T13:30:22.799Z,19.87
2019-03-25T13:32:51.685Z,20.87
2019-03-25T13:35:20.179Z,15.70
2019-03-25T13:37:50.527Z,17.27
2019-03-25T13:40:19.055Z,20.37
2019-03-25T13:42:47.574Z,19.93
2019-03-25T13:45:16.252Z,17.60
2019-03-25T13:47:44.839Z,15.13
2019-03-25T13:50:13.507Z,17.80
2019-03-25T13:52:42.085Z,20.23
2019-03-25T13:55:10.656Z,20.07
2019-03-25T13:57:39.410Z,15.43
2019-03-25T14:00:08.023Z,16.33
2019-03-25T14:02:36.823Z,18.80
2019-03-25T14:05:06.265Z,17.70
2019-03-25T14:07:34.820Z,12.53
2019-03-25T14:10:05.341Z,25.63
2019-03-25T14:12:34.028Z,23.47
2019-03-25T14:15:02.714Z,10.80
2019-03-25T14:17:31.327Z,11.03
2019-03-25T14:19:59.868Z,10.10
2019-03-25T14:22:28.627Z,19.37
2019-03-25T14:24:57.146Z,20.00
2019-03-25T14:27:25.670Z,13.13
2019-03-25T14:29:54.508Z,19.50
2019-03-25T14:32:22.990Z,16.27
2019-03-25T14:34:51.782Z,21.53
2019-03-25T14:37:20.763Z,15.47
2019-03-25T14:39:50.372Z,14.57
2019-03-25T14:42:20.432Z,17.07
2019-03-25T14:44:49.060Z,20.90
2019-03-25T14:47:19.252Z,16.57
2019-03-25T14:49:47.882Z,13.33
2019-03-25T14:52:16.419Z,21.73
2019-03-25T14:54:44.993Z,21.13
2019-03-25T14:57:13.512Z,23.40
2019-03-25T14:59:42.002Z,18.23
2019-03-25T15:02:10.639Z,17.53
2019-03-25T15:04:39.221Z,17.70
2019-03-25T15:07:07.859Z,13.27
2019-03-25T15:09:36.500Z,17.63
2019-03-25T15:12:05.096Z,18.40
2019-03-25T15:14:33.669Z,20.03
2019-03-25T15:17:02.344Z,17.57
2019-03-25T15:19:31.029Z,13.90
2019-03-25T15:21:59.595Z,14.67
2019-03-25T15:24:28.239Z,20.23
2019-03-25T15:26:56.835Z,11.93
2019-03-25T15:29:25.399Z,20.47
2019-03-25T15:31:54.065Z,17.00
2019-03-25T15:34:22.575Z,15.67
2019-03-25T15:36:51.261Z,13.70
2019-03-25T15:39:19.766Z,17.47
2019-03-25T15:41:48.245Z,19.07
2019-03-25T15:44:16.893Z,18.17
2019-03-25T15:46:55.278Z,16.20
2019-03-25T15:49:15.615Z,16.50
2019-03-25T15:51:44.253Z,12.77
2019-03-25T15:54:12.773Z,19.80
2019-03-25T15:56:41.274Z,21.37
2019-03-25T15:59:09.855Z,18.60
2019-03-25T16:01:38.327Z,22.17
2019-03-25T16:04:06.966Z,16.90
2019-03-25T16:06:35.444Z,22.60
2019-03-25T16:09:05.619Z,25.57
2019-03-25T16:11:34.226Z,16.80
2019-03-25T16:14:02.839Z,21.37
2019-03-25T16:16:31.326Z,24.90
2019-03-25T16:18:59.921Z,15.73
2019-03-25T16:21:28.484Z,21.77
2019-03-25T16:23:56.967Z,15.37
2019-03-25T16:26:25.548Z,23.17
2019-03-25T16:28:54.118Z,17.57
2019-03-25T16:31:22.666Z,23.73
2019-03-25T16:33:51.153Z,19.90
2019-03-25T16:36:19.895Z,20.37
2019-03-25T16:38:48.459Z,27.17
2019-03-25T16:41:17.145Z,16.87
2019-03-25T16:43:45.636Z,18.70
2019-03-25T16:46:14.256Z,20.20
2019-03-25T16:48:42.927Z,23.50
2019-03-25T16:51:11.615Z,14.73
2019-03-25T16:53:40.173Z,21.87
2019-03-25T16:56:08.786Z,20.57
2019-03-25T16:58:37.444Z,17.03
2019-03-25T17:01:10.262Z,16.80
2019-03-25T17:03:36.149Z,19.13
2019-03-25T17:06:04.648Z,15.60
2019-03-25T17:08:33.333Z,15.33
2019-03-25T17:11:01.925Z,14.07
2019-03-25T17:13:30.492Z,19.77
2019-03-25T17:15:59.116Z,17.03
2019-03-25T17:18:27.660Z,26.80
2019-03-25T17:20:56.134Z,19.03
2019-03-25T17:23:24.678Z,21.23
2019-03-25T17:25:53.537Z,21.83
2019-03-25T17:28:22.205Z,26.20
2019-03-25T17:30:50.780Z,25.53
2019-03-25T17:33:19.305Z,25.80
2019-03-25T17:35:47.831Z,27.93
2019-03-25T17:38:16.372Z,28.27
2019-03-25T17:40:45.119Z,23.80
2019-03-25T17:43:13.692Z,30.47
2019-03-25T17:45:42.216Z,19.07
2019-03-25T17:48:10.900Z,32.20
2019-03-25T17:50:39.441Z,32.03
2019-03-25T17:53:08.186Z,34.47
2019-03-25T17:55:36.777Z,32.80
2019-03-25T17:58:08.177Z,33.50
2019-03-25T18:00:49.230Z,32.60
2019-03-25T18:03:17.775Z,35.47
2019-03-25T18:05:46.330Z,24.37
2019-03-25T18:08:14.911Z,25.00
2019-03-25T18:10:43.479Z,24.50
2019-03-25T18:13:21.922Z,29.90
2019-03-25T18:15:42.626Z,24.90
2019-03-25T18:18:11.302Z,26.93
2019-03-25T18:20:40.079Z,31.60
2019-03-25T18:23:08.649Z,28.10
2019-03-25T18:25:37.516Z,30.03
2019-03-25T18:28:06.593Z,19.23
2019-03-25T18:30:35.318Z,27.67
2019-03-25T18:33:03.965Z,35.20
2019-03-25T18:35:32.462Z,27.57
2019-03-25T18:38:01.045Z,28.73
2019-03-25T18:40:29.680Z,28.07
2019-03-25T18:42:58.426Z,24.43
2019-03-25T18:45:27.729Z,23.60
2019-03-25T18:47:56.766Z,24.10
2019-03-25T18:50:25.313Z,29.77
2019-03-25T18:52:53.951Z,24.80
2019-03-25T18:55:22.441Z,23.20
2019-03-25T18:57:51.060Z,22.27
2019-03-25T19:00:30.947Z,20.97
2019-03-25T19:02:59.738Z,32.27
2019-03-25T19:05:28.293Z,23.70
2019-03-25T19:07:56.938Z,23.33
2019-03-25T19:10:29.136Z,27.40
2019-03-25T19:12:58.277Z,21.50
2019-03-25T19:15:26.941Z,25.23
2019-03-25T19:17:55.405Z,26.90
2019-03-25T19:20:24.458Z,22.03
2019-03-25T19:22:53.078Z,25.13
2019-03-25T19:25:21.873Z,34.10
2019-03-25T19:27:50.641Z,22.33
2019-03-25T19:30:20.729Z,26.50
2019-03-25T19:32:49.252Z,25.47
2019-03-25T19:35:18.196Z,31.97
2019-03-25T19:37:46.728Z,33.50
2019-03-25T19:40:15.361Z,31.33
2019-03-25T19:42:43.900Z,23.03
2019-03-25T19:45:12.456Z,34.27
2019-03-25T19:47:40.937Z,25.80
2019-03-25T19:50:09.656Z,31.00
2019-03-25T19:52:38.363Z,30.50
2019-03-25T19:55:06.947Z,30.30
2019-03-25T19:57:35.582Z,33.67
2019-03-25T20:00:06.387Z,25.00
2019-03-25T20:02:35.001Z,24.53
2019-03-25T20:05:04.434Z,29.60
2019-03-25T20:07:33.047Z,23.97
2019-03-25T20:10:01.675Z,23.27
2019-03-25T20:12:30.313Z,21.43
2019-03-25T20:14:58.973Z,34.97
2019-03-25T20:17:27.529Z,29.23
2019-03-25T20:19:56.452Z,25.23
2019-03-25T20:22:25.143Z,25.40
2019-03-25T20:24:54.029Z,27.00
2019-03-25T20:27:22.766Z,30.03
2019-03-25T20:29:51.349Z,29.07
2019-03-25T20:32:31.223Z,43.43
2019-03-25T20:34:50.381Z,22.80
2019-03-25T20:37:18.936Z,23.90
2019-03-25T20:39:47.726Z,25.90
2019-03-25T20:42:16.308Z,25.77
2019-03-25T20:44:44.891Z,25.57
2019-03-25T20:47:13.714Z,23.47
2019-03-25T20:49:44.775Z,24.93
2019-03-25T20:52:15.111Z,30.67
2019-03-25T20:54:43.930Z,28.70
2019-03-25T20:57:12.525Z,39.63
2019-03-25T20:59:41.210Z,34.10
2019-03-25T21:02:09.807Z,31.73
2019-03-25T21:04:38.467Z,29.73
2019-03-25T21:07:07.264Z,29.33
2019-03-25T21:09:36.065Z,36.17
2019-03-25T21:12:04.792Z,26.47
2019-03-25T21:14:33.526Z,27.57
2019-03-25T21:17:02.308Z,28.73
2019-03-25T21:19:31.012Z,25.57
2019-03-25T21:21:59.729Z,22.10
2019-03-25T21:24:28.466Z,28.93
2019-03-25T21:26:57.146Z,27.13
2019-03-25T21:29:25.947Z,25.63
2019-03-25T21:31:54.638Z,33.23
2019-03-25T21:34:26.299Z,32.10
2019-03-25T21:36:58.230Z,31.30
2019-03-25T21:39:27.137Z,40.77
2019-03-25T21:41:55.709Z,34.50
2019-03-25T21:44:24.410Z,27.20
2019-03-25T21:46:53.171Z,34.93
2019-03-25T21:49:21.751Z,34.33
2019-03-25T21:51:50.260Z,22.23
2019-03-25T21:54:18.881Z,43.40
2019-03-25T21:56:47.707Z,31.37
2019-03-25T21:59:16.298Z,26.90
2019-03-25T22:01:44.861Z,30.87
2019-03-25T22:04:13.553Z,32.03
2019-03-25T22:06:42.255Z,31.07
2019-03-25T22:09:10.912Z,32.87
2019-03-25T22:11:39.610Z,33.40
2019-03-25T22:14:08.287Z,29.73
2019-03-25T22:16:36.882Z,27.47
2019-03-25T22:19:05.459Z,27.07
2019-03-25T22:21:34.024Z,25.73
2019-03-25T22:24:02.722Z,24.70
2019-03-25T22:26:31.294Z,26.33
2019-03-25T22:28:59.884Z,29.93
2019-03-25T22:31:28.772Z,33.27
2019-03-25T22:33:57.463Z,37.10
2019-03-25T22:36:26.247Z,29.53
2019-03-25T22:38:55.045Z,33.37
2019-03-25T22:41:23.724Z,29.27
2019-03-25T22:43:52.199Z,24.87
2019-03-25T22:46:20.893Z,30.17
2019-03-25T22:48:49.570Z,29.33
2019-03-25T22:51:18.469Z,36.37
2019-03-25T22:53:47.256Z,23.90
2019-03-25T22:56:15.923Z,27.53
2019-03-25T22:58:44.713Z,24.80
2019-03-25T23:01:13.203Z,24.67
2019-03-25T23:03:41.832Z,23.70
2019-03-25T23:06:10.472Z,28.97
2019-03-25T23:08:39.149Z,26.33
2019-03-25T23:11:08.057Z,21.63
2019-03-25T23:13:36.832Z,26.43
2019-03-25T23:16:05.514Z,23.23
2019-03-25T23:18:34.097Z,32.47
2019-03-25T23:21:02.793Z,32.57
2019-03-25T23:23:31.772Z,29.20
2019-03-25T23:26:00.447Z,21.87
2019-03-25T23:28:29.016Z,29.50
2019-03-25T23:30:57.714Z,25.50
2019-03-25T23:33:26.295Z,24.10
2019-03-25T23:35:54.879Z,29.30
2019-03-25T23:38:23.462Z,24.37
2019-03-25T23:40:52.159Z,28.67
2019-03-25T23:43:20.864Z,26.13
2019-03-25T23:45:50.910Z,25.30
2019-03-25T23:48:19.842Z,29.53
2019-03-25T23:50:48.520Z,27.03
2019-03-25T23:53:17.311Z,24.77
2019-03-25T23:55:46.103Z,24.13
2019-03-25T23:58:14.786Z,22.70
